sensor_id;sensor_type;location;lat;lon;timestamp;pressure;altitude;pressure_sealevel;temperature
15544;BMP180;7873;52.230;12.856;2024-03-06T00:02:10;101221.63;;;25.33
15544;BMP180;7873;52.230;12.856;2024-03-06T00:04:36;101214.72;;;25.30
15544;BMP180;7873;52.230;12.856;2024-03-06T00:07:04;101216.75;;;25.28
15544;BMP180;7873;52.230;12.856;2024-03-06T00:09:31;101220.28;;;25.29
15544;BMP180;7873;52.230;12.856;2024-03-06T00:11:57;101224.34;;;25.25
15544;BMP180;7873;52.230;12.856;2024-03-06T00:14:25;101224.56;;;25.23
15544;BMP180;7873;52.230;12.856;2024-03-06T00:16:53;101233.00;;;25.20
15544;BMP180;7873;52.230;12.856;2024-03-06T00:19:21;101228.94;;;25.16
15544;BMP180;7873;52.230;12.856;2024-03-06T00:21:48;101224.91;;;25.12
15544;BMP180;7873;52.230;12.856;2024-03-06T00:24:15;101220.56;;;25.11
15544;BMP180;7873;52.230;12.856;2024-03-06T00:26:42;101229.84;;;25.09
15544;BMP180;7873;52.230;12.856;2024-03-06T00:29:10;101233.56;;;25.08
15544;BMP180;7873;52.230;12.856;2024-03-06T00:31:36;101234.91;;;25.04
15544;BMP180;7873;52.230;12.856;2024-03-06T00:34:04;101236.94;;;25.02
15544;BMP180;7873;52.230;12.856;2024-03-06T00:36:31;101233.97;;;24.97
15544;BMP180;7873;52.230;12.856;2024-03-06T00:38:57;101236.84;;;24.95
15544;BMP180;7873;52.230;12.856;2024-03-06T00:41:24;101237.81;;;24.94
15544;BMP180;7873;52.230;12.856;2024-03-06T00:43:51;101244.44;;;24.92
15544;BMP180;7873;52.230;12.856;2024-03-06T00:46:17;101244.59;;;24.90
15544;BMP180;7873;52.230;12.856;2024-03-06T00:48:44;101245.97;;;24.86
15544;BMP180;7873;52.230;12.856;2024-03-06T00:51:11;101253.41;;;24.84
15544;BMP180;7873;52.230;12.856;2024-03-06T00:53:38;101256.25;;;24.83
15544;BMP180;7873;52.230;12.856;2024-03-06T00:56:05;101255.78;;;24.79
15544;BMP180;7873;52.230;12.856;2024-03-06T00:58:34;101256.97;;;24.77
15544;BMP180;7873;52.230;12.856;2024-03-06T01:01:00;101254.47;;;24.75
15544;BMP180;7873;52.230;12.856;2024-03-06T01:03:29;101258.16;;;24.74
15544;BMP180;7873;52.230;12.856;2024-03-06T01:05:55;101262.91;;;24.72
15544;BMP180;7873;52.230;12.856;2024-03-06T01:08:23;101265.59;;;24.72
15544;BMP180;7873;52.230;12.856;2024-03-06T01:10:50;101259.50;;;24.70
15544;BMP180;7873;52.230;12.856;2024-03-06T01:13:17;101264.22;;;24.68
15544;BMP180;7873;52.230;12.856;2024-03-06T01:15:44;101260.22;;;24.64
15544;BMP180;7873;52.230;12.856;2024-03-06T01:18:10;101263.25;;;24.61
15544;BMP180;7873;52.230;12.856;2024-03-06T01:20:37;101266.31;;;24.58
15544;BMP180;7873;52.230;12.856;2024-03-06T01:23:03;101265.66;;;24.56
15544;BMP180;7873;52.230;12.856;2024-03-06T01:25:31;101259.41;;;24.56
15544;BMP180;7873;52.230;12.856;2024-03-06T01:27:58;101266.66;;;24.55
15544;BMP180;7873;52.230;12.856;2024-03-06T01:30:24;101278.44;;;24.54
15544;BMP180;7873;52.230;12.856;2024-03-06T01:32:51;101273.41;;;24.51
15544;BMP180;7873;52.230;12.856;2024-03-06T01:35:17;101273.53;;;24.50
15544;BMP180;7873;52.230;12.856;2024-03-06T01:37:44;101273.03;;;24.46
15544;BMP180;7873;52.230;12.856;2024-03-06T01:40:11;101281.31;;;24.45
15544;BMP180;7873;52.230;12.856;2024-03-06T01:42:39;101283.13;;;24.44
15544;BMP180;7873;52.230;12.856;2024-03-06T01:45:07;101280.81;;;24.41
15544;BMP180;7873;52.230;12.856;2024-03-06T01:47:34;101286.38;;;24.40
15544;BMP180;7873;52.230;12.856;2024-03-06T01:50:01;101287.53;;;24.37
15544;BMP180;7873;52.230;12.856;2024-03-06T01:52:28;101293.94;;;24.36
15544;BMP180;7873;52.230;12.856;2024-03-06T01:54:55;101291.59;;;24.33
15544;BMP180;7873;52.230;12.856;2024-03-06T01:57:22;101294.09;;;24.35
15544;BMP180;7873;52.230;12.856;2024-03-06T01:59:50;101295.63;;;24.37
15544;BMP180;7873;52.230;12.856;2024-03-06T02:02:16;101296.63;;;24.36
15544;BMP180;7873;52.230;12.856;2024-03-06T02:04:43;101295.78;;;24.36
15544;BMP180;7873;52.230;12.856;2024-03-06T02:07:10;101290.75;;;24.33
15544;BMP180;7873;52.230;12.856;2024-03-06T02:09:37;101298.00;;;24.32
15544;BMP180;7873;52.230;12.856;2024-03-06T02:12:04;101296.47;;;24.30
15544;BMP180;7873;52.230;12.856;2024-03-06T02:14:32;101302.72;;;24.30
15544;BMP180;7873;52.230;12.856;2024-03-06T02:16:59;101292.97;;;24.29
15544;BMP180;7873;52.230;12.856;2024-03-06T02:19:37;101297.69;;;24.27
15544;BMP180;7873;52.230;12.856;2024-03-06T02:22:05;101292.59;;;24.24
15544;BMP180;7873;52.230;12.856;2024-03-06T02:24:32;101295.50;;;24.23
15544;BMP180;7873;52.230;12.856;2024-03-06T02:26:58;101305.41;;;24.22
15544;BMP180;7873;52.230;12.856;2024-03-06T02:29:25;101304.75;;;24.20
15544;BMP180;7873;52.230;12.856;2024-03-06T02:31:51;101304.94;;;24.19
15544;BMP180;7873;52.230;12.856;2024-03-06T02:34:18;101307.09;;;24.15
15544;BMP180;7873;52.230;12.856;2024-03-06T02:36:44;101304.75;;;24.12
15544;BMP180;7873;52.230;12.856;2024-03-06T02:39:12;101304.09;;;24.10
15544;BMP180;7873;52.230;12.856;2024-03-06T02:41:40;101310.66;;;24.08
15544;BMP180;7873;52.230;12.856;2024-03-06T02:44:06;101312.50;;;24.07
15544;BMP180;7873;52.230;12.856;2024-03-06T02:46:33;101298.19;;;24.07
15544;BMP180;7873;52.230;12.856;2024-03-06T02:49:00;101299.88;;;24.08
15544;BMP180;7873;52.230;12.856;2024-03-06T02:51:27;101305.44;;;24.06
15544;BMP180;7873;52.230;12.856;2024-03-06T02:53:53;101301.91;;;24.06
15544;BMP180;7873;52.230;12.856;2024-03-06T02:56:21;101302.91;;;24.05
15544;BMP180;7873;52.230;12.856;2024-03-06T02:58:48;101304.78;;;24.04
15544;BMP180;7873;52.230;12.856;2024-03-06T03:01:15;101304.13;;;24.02
15544;BMP180;7873;52.230;12.856;2024-03-06T03:03:41;101311.47;;;24.00
15544;BMP180;7873;52.230;12.856;2024-03-06T03:06:08;101315.19;;;23.99
15544;BMP180;7873;52.230;12.856;2024-03-06T03:08:34;101318.88;;;23.98
15544;BMP180;7873;52.230;12.856;2024-03-06T03:11:02;101327.97;;;23.97
15544;BMP180;7873;52.230;12.856;2024-03-06T03:13:29;101323.59;;;23.96
15544;BMP180;7873;52.230;12.856;2024-03-06T03:15:57;101323.13;;;23.93
15544;BMP180;7873;52.230;12.856;2024-03-06T03:18:23;101329.50;;;23.92
15544;BMP180;7873;52.230;12.856;2024-03-06T03:20:50;101326.13;;;23.90
15544;BMP180;7873;52.230;12.856;2024-03-06T03:23:16;101331.00;;;23.86
15544;BMP180;7873;52.230;12.856;2024-03-06T03:25:47;101338.06;;;23.87
15544;BMP180;7873;52.230;12.856;2024-03-06T03:28:14;101340.09;;;23.85
15544;BMP180;7873;52.230;12.856;2024-03-06T03:30:42;101346.63;;;23.83
15544;BMP180;7873;52.230;12.856;2024-03-06T03:33:10;101345.25;;;23.79
15544;BMP180;7873;52.230;12.856;2024-03-06T03:35:36;101346.13;;;23.79
15544;BMP180;7873;52.230;12.856;2024-03-06T03:38:03;101342.72;;;23.77
15544;BMP180;7873;52.230;12.856;2024-03-06T03:40:30;101344.59;;;23.77
15544;BMP180;7873;52.230;12.856;2024-03-06T03:42:58;101351.81;;;23.76
15544;BMP180;7873;52.230;12.856;2024-03-06T03:45:24;101352.31;;;23.72
15544;BMP180;7873;52.230;12.856;2024-03-06T03:47:52;101348.78;;;23.72
15544;BMP180;7873;52.230;12.856;2024-03-06T03:50:18;101351.66;;;23.70
15544;BMP180;7873;52.230;12.856;2024-03-06T03:52:45;101353.66;;;23.68
15544;BMP180;7873;52.230;12.856;2024-03-06T03:55:11;101352.97;;;23.66
15544;BMP180;7873;52.230;12.856;2024-03-06T03:57:38;101350.47;;;23.65
15544;BMP180;7873;52.230;12.856;2024-03-06T04:00:06;101356.84;;;23.64
15544;BMP180;7873;52.230;12.856;2024-03-06T04:02:36;101360.53;;;23.63
15544;BMP180;7873;52.230;12.856;2024-03-06T04:05:04;101351.81;;;23.61
15544;BMP180;7873;52.230;12.856;2024-03-06T04:07:31;101357.19;;;23.61
15544;BMP180;7873;52.230;12.856;2024-03-06T04:09:57;101366.41;;;23.58
15544;BMP180;7873;52.230;12.856;2024-03-06T04:12:24;101355.84;;;23.57
15544;BMP180;7873;52.230;12.856;2024-03-06T04:14:51;101358.69;;;23.55
15544;BMP180;7873;52.230;12.856;2024-03-06T04:17:17;101357.00;;;23.54
15544;BMP180;7873;52.230;12.856;2024-03-06T04:19:44;101362.53;;;23.53
15544;BMP180;7873;52.230;12.856;2024-03-06T04:22:15;101353.63;;;23.52
15544;BMP180;7873;52.230;12.856;2024-03-06T04:24:44;101359.16;;;23.51
15544;BMP180;7873;52.230;12.856;2024-03-06T04:27:11;101356.66;;;23.49
15544;BMP180;7873;52.230;12.856;2024-03-06T04:29:37;101353.28;;;23.47
15544;BMP180;7873;52.230;12.856;2024-03-06T04:32:04;101358.81;;;23.46
15544;BMP180;7873;52.230;12.856;2024-03-06T04:34:31;101366.88;;;23.46
15544;BMP180;7873;52.230;12.856;2024-03-06T04:36:57;101371.59;;;23.44
15544;BMP180;7873;52.230;12.856;2024-03-06T04:39:25;101369.91;;;23.43
15544;BMP180;7873;52.230;12.856;2024-03-06T04:41:51;101367.38;;;23.41
15544;BMP180;7873;52.230;12.856;2024-03-06T04:44:18;101374.28;;;23.44
15544;BMP180;7873;52.230;12.856;2024-03-06T04:46:44;101365.34;;;23.43
15544;BMP180;7873;52.230;12.856;2024-03-06T04:49:11;101372.59;;;23.43
15544;BMP180;7873;52.230;12.856;2024-03-06T04:51:37;101373.75;;;23.40
15544;BMP180;7873;52.230;12.856;2024-03-06T04:54:04;101369.06;;;23.42
15544;BMP180;7873;52.230;12.856;2024-03-06T04:56:31;101376.63;;;23.39
15544;BMP180;7873;52.230;12.856;2024-03-06T04:58:59;101372.19;;;23.22
15544;BMP180;7873;52.230;12.856;2024-03-06T05:01:28;101375.53;;;23.16
15544;BMP180;7873;52.230;12.856;2024-03-06T05:03:55;101386.28;;;23.16
15544;BMP180;7873;52.230;12.856;2024-03-06T05:06:22;101386.31;;;23.24
15544;BMP180;7873;52.230;12.856;2024-03-06T05:08:49;101382.81;;;23.31
15544;BMP180;7873;52.230;12.856;2024-03-06T05:11:15;101393.78;;;23.46
15544;BMP180;7873;52.230;12.856;2024-03-06T05:13:43;101395.13;;;23.50
15544;BMP180;7873;52.230;12.856;2024-03-06T05:16:10;101398.53;;;23.60
15544;BMP180;7873;52.230;12.856;2024-03-06T05:18:36;101401.91;;;23.70
15544;BMP180;7873;52.230;12.856;2024-03-06T05:21:03;101408.47;;;23.75
15544;BMP180;7873;52.230;12.856;2024-03-06T05:23:30;101414.41;;;23.86
15544;BMP180;7873;52.230;12.856;2024-03-06T05:25:56;101411.41;;;24.05
15544;BMP180;7873;52.230;12.856;2024-03-06T05:28:22;101409.69;;;24.20
15544;BMP180;7873;52.230;12.856;2024-03-06T05:30:50;101418.28;;;24.40
15544;BMP180;7873;52.230;12.856;2024-03-06T05:33:17;101424.03;;;24.61
15544;BMP180;7873;52.230;12.856;2024-03-06T05:35:43;101433.22;;;24.82
15544;BMP180;7873;52.230;12.856;2024-03-06T05:38:10;101433.50;;;25.03
15544;BMP180;7873;52.230;12.856;2024-03-06T05:40:36;101439.19;;;25.24
15544;BMP180;7873;52.230;12.856;2024-03-06T05:43:05;101435.44;;;25.41
15544;BMP180;7873;52.230;12.856;2024-03-06T05:45:32;101441.44;;;25.51
15544;BMP180;7873;52.230;12.856;2024-03-06T05:47:59;101447.59;;;25.67
15544;BMP180;7873;52.230;12.856;2024-03-06T05:50:26;101446.84;;;25.81
15544;BMP180;7873;52.230;12.856;2024-03-06T05:52:52;101454.00;;;25.97
15544;BMP180;7873;52.230;12.856;2024-03-06T05:55:19;101455.94;;;26.11
15544;BMP180;7873;52.230;12.856;2024-03-06T05:57:45;101465.28;;;26.23
15544;BMP180;7873;52.230;12.856;2024-03-06T06:00:13;101450.53;;;26.33
15544;BMP180;7873;52.230;12.856;2024-03-06T06:02:40;101459.41;;;26.42
15544;BMP180;7873;52.230;12.856;2024-03-06T06:05:08;101463.41;;;26.46
15544;BMP180;7873;52.230;12.856;2024-03-06T06:07:35;101466.38;;;26.14
15544;BMP180;7873;52.230;12.856;2024-03-06T06:10:03;101468.75;;;25.86
15544;BMP180;7873;52.230;12.856;2024-03-06T06:12:31;101477.56;;;25.72
15544;BMP180;7873;52.230;12.856;2024-03-06T06:14:58;101476.59;;;25.65
15544;BMP180;7873;52.230;12.856;2024-03-06T06:17:24;101481.84;;;25.59
15544;BMP180;7873;52.230;12.856;2024-03-06T06:19:51;101485.09;;;25.55
15544;BMP180;7873;52.230;12.856;2024-03-06T06:22:18;101481.03;;;25.51
15544;BMP180;7873;52.230;12.856;2024-03-06T06:24:45;101477.66;;;24.94
15544;BMP180;7873;52.230;12.856;2024-03-06T06:27:12;101486.81;;;24.53
15544;BMP180;7873;52.230;12.856;2024-03-06T06:29:39;101486.31;;;24.66
15544;BMP180;7873;52.230;12.856;2024-03-06T06:32:07;101494.69;;;24.87
15544;BMP180;7873;52.230;12.856;2024-03-06T06:34:33;101498.22;;;24.95
15544;BMP180;7873;52.230;12.856;2024-03-06T06:36:59;101508.47;;;25.08
15544;BMP180;7873;52.230;12.856;2024-03-06T06:39:27;101509.16;;;25.18
15544;BMP180;7873;52.230;12.856;2024-03-06T06:41:54;101508.78;;;25.21
15544;BMP180;7873;52.230;12.856;2024-03-06T06:44:20;101515.00;;;25.29
15544;BMP180;7873;52.230;12.856;2024-03-06T06:46:47;101512.13;;;25.39
15544;BMP180;7873;52.230;12.856;2024-03-06T06:49:13;101508.34;;;25.48
15544;BMP180;7873;52.230;12.856;2024-03-06T06:51:40;101512.72;;;25.57
15544;BMP180;7873;52.230;12.856;2024-03-06T06:54:06;101517.88;;;25.74
15544;BMP180;7873;52.230;12.856;2024-03-06T06:56:34;101517.84;;;25.90
15544;BMP180;7873;52.230;12.856;2024-03-06T06:59:00;101528.22;;;26.01
15544;BMP180;7873;52.230;12.856;2024-03-06T07:01:27;101530.59;;;25.96
15544;BMP180;7873;52.230;12.856;2024-03-06T07:03:54;101524.84;;;25.99
15544;BMP180;7873;52.230;12.856;2024-03-06T07:06:20;101522.38;;;25.89
15544;BMP180;7873;52.230;12.856;2024-03-06T07:08:46;101528.81;;;25.80
15544;BMP180;7873;52.230;12.856;2024-03-06T07:11:16;101525.91;;;25.82
15544;BMP180;7873;52.230;12.856;2024-03-06T07:13:44;101529.81;;;25.87
15544;BMP180;7873;52.230;12.856;2024-03-06T07:16:10;101536.38;;;25.93
15544;BMP180;7873;52.230;12.856;2024-03-06T07:18:37;101535.34;;;25.94
15544;BMP180;7873;52.230;12.856;2024-03-06T07:21:03;101537.69;;;25.97
15544;BMP180;7873;52.230;12.856;2024-03-06T07:23:30;101540.38;;;25.97
15544;BMP180;7873;52.230;12.856;2024-03-06T07:25:57;101540.19;;;25.98
15544;BMP180;7873;52.230;12.856;2024-03-06T07:28:24;101550.66;;;26.01
15544;BMP180;7873;52.230;12.856;2024-03-06T07:30:52;101544.25;;;26.02
15544;BMP180;7873;52.230;12.856;2024-03-06T07:33:18;101556.72;;;26.03
15544;BMP180;7873;52.230;12.856;2024-03-06T07:35:45;101559.22;;;26.05
15544;BMP180;7873;52.230;12.856;2024-03-06T07:38:11;101554.84;;;26.04
15544;BMP180;7873;52.230;12.856;2024-03-06T07:40:38;101557.53;;;26.04
15544;BMP180;7873;52.230;12.856;2024-03-06T07:43:04;101567.53;;;26.03
15544;BMP180;7873;52.230;12.856;2024-03-06T07:45:31;101568.53;;;26.02
15544;BMP180;7873;52.230;12.856;2024-03-06T07:47:59;101563.97;;;26.03
15544;BMP180;7873;52.230;12.856;2024-03-06T07:50:25;101566.84;;;26.01
15544;BMP180;7873;52.230;12.856;2024-03-06T07:52:52;101568.53;;;26.02
15544;BMP180;7873;52.230;12.856;2024-03-06T07:55:20;101572.06;;;26.03
15544;BMP180;7873;52.230;12.856;2024-03-06T07:57:47;101575.78;;;26.02
15544;BMP180;7873;52.230;12.856;2024-03-06T08:00:14;101577.00;;;25.99
15544;BMP180;7873;52.230;12.856;2024-03-06T08:02:41;101582.56;;;25.98
15544;BMP180;7873;52.230;12.856;2024-03-06T08:05:10;101586.28;;;25.97
15544;BMP180;7873;52.230;12.856;2024-03-06T08:07:38;101581.38;;;25.92
15544;BMP180;7873;52.230;12.856;2024-03-06T08:10:08;101579.34;;;25.94
15544;BMP180;7873;52.230;12.856;2024-03-06T08:12:36;101591.00;;;25.95
15544;BMP180;7873;52.230;12.856;2024-03-06T08:15:03;101588.47;;;25.93
15544;BMP180;7873;52.230;12.856;2024-03-06T08:17:29;101595.75;;;25.93
15544;BMP180;7873;52.230;12.856;2024-03-06T08:19:56;101592.38;;;25.91
15544;BMP180;7873;52.230;12.856;2024-03-06T08:22:24;101598.13;;;25.88
15544;BMP180;7873;52.230;12.856;2024-03-06T08:24:50;101591.03;;;25.87
15544;BMP180;7873;52.230;12.856;2024-03-06T08:27:16;101601.47;;;25.82
15544;BMP180;7873;52.230;12.856;2024-03-06T08:29:43;101589.19;;;25.79
15544;BMP180;7873;52.230;12.856;2024-03-06T08:32:09;101600.34;;;25.76
15544;BMP180;7873;52.230;12.856;2024-03-06T08:34:36;101595.94;;;25.75
15544;BMP180;7873;52.230;12.856;2024-03-06T08:37:03;101589.84;;;25.73
15544;BMP180;7873;52.230;12.856;2024-03-06T08:39:30;101589.41;;;25.70
15544;BMP180;7873;52.230;12.856;2024-03-06T08:41:57;101599.16;;;25.71
15544;BMP180;7873;52.230;12.856;2024-03-06T08:44:25;101599.53;;;25.68
15544;BMP180;7873;52.230;12.856;2024-03-06T08:46:53;101602.22;;;25.68
15544;BMP180;7873;52.230;12.856;2024-03-06T08:49:19;101597.84;;;25.67
15544;BMP180;7873;52.230;12.856;2024-03-06T08:51:46;101595.13;;;25.67
15544;BMP180;7873;52.230;12.856;2024-03-06T08:54:13;101600.84;;;25.64
15544;BMP180;7873;52.230;12.856;2024-03-06T08:56:42;101602.88;;;25.62
15544;BMP180;7873;52.230;12.856;2024-03-06T08:59:09;101596.00;;;25.59
15544;BMP180;7873;52.230;12.856;2024-03-06T09:01:35;101605.09;;;25.58
15544;BMP180;7873;52.230;12.856;2024-03-06T09:04:02;101601.91;;;25.55
15544;BMP180;7873;52.230;12.856;2024-03-06T09:06:28;101606.63;;;25.53
15544;BMP180;7873;52.230;12.856;2024-03-06T09:08:55;101605.31;;;25.49
15544;BMP180;7873;52.230;12.856;2024-03-06T09:11:21;101610.03;;;25.47
15544;BMP180;7873;52.230;12.856;2024-03-06T09:13:49;101614.41;;;25.48
15544;BMP180;7873;52.230;12.856;2024-03-06T09:16:16;101615.41;;;25.47
15544;BMP180;7873;52.230;12.856;2024-03-06T09:18:43;101621.81;;;25.46
15544;BMP180;7873;52.230;12.856;2024-03-06T09:21:10;101623.00;;;25.44
15544;BMP180;7873;52.230;12.856;2024-03-06T09:23:37;101623.50;;;25.39
15544;BMP180;7873;52.230;12.856;2024-03-06T09:26:04;101621.00;;;25.38
15544;BMP180;7873;52.230;12.856;2024-03-06T09:28:31;101616.28;;;25.24
15544;BMP180;7873;52.230;12.856;2024-03-06T09:30:59;101617.28;;;25.23
15544;BMP180;7873;52.230;12.856;2024-03-06T09:33:26;101625.56;;;25.21
15544;BMP180;7873;52.230;12.856;2024-03-06T09:35:53;101624.06;;;25.19
15544;BMP180;7873;52.230;12.856;2024-03-06T09:38:19;101624.50;;;25.14
15544;BMP180;7873;52.230;12.856;2024-03-06T09:40:46;101624.50;;;25.14
15544;BMP180;7873;52.230;12.856;2024-03-06T09:43:14;101629.44;;;25.11
15544;BMP180;7873;52.230;12.856;2024-03-06T09:45:40;101632.28;;;25.09
15544;BMP180;7873;52.230;12.856;2024-03-06T09:48:08;101627.06;;;25.08
15544;BMP180;7873;52.230;12.856;2024-03-06T09:50:35;101627.22;;;25.06
15544;BMP180;7873;52.230;12.856;2024-03-06T09:53:07;101635.31;;;25.06
15544;BMP180;7873;52.230;12.856;2024-03-06T09:55:34;101629.41;;;25.03
15544;BMP180;7873;52.230;12.856;2024-03-06T09:58:02;101631.44;;;25.01
15544;BMP180;7873;52.230;12.856;2024-03-06T10:00:30;101639.84;;;24.98
15544;BMP180;7873;52.230;12.856;2024-03-06T10:02:58;101637.34;;;24.96
15544;BMP180;7873;52.230;12.856;2024-03-06T10:05:27;101635.97;;;24.92
15544;BMP180;7873;52.230;12.856;2024-03-06T10:07:55;101631.94;;;24.88
15544;BMP180;7873;52.230;12.856;2024-03-06T10:10:24;101638.31;;;24.87
15544;BMP180;7873;52.230;12.856;2024-03-06T10:12:52;101625.19;;;24.84
15544;BMP180;7873;52.230;12.856;2024-03-06T10:15:19;101630.75;;;24.83
15544;BMP180;7873;52.230;12.856;2024-03-06T10:17:46;101632.94;;;24.79
15544;BMP180;7873;52.230;12.856;2024-03-06T10:20:18;101632.28;;;24.77
15544;BMP180;7873;52.230;12.856;2024-03-06T10:22:48;101636.66;;;24.78
15544;BMP180;7873;52.230;12.856;2024-03-06T10:25:18;101630.59;;;24.76
15544;BMP180;7873;52.230;12.856;2024-03-06T10:27:45;101629.91;;;24.74
15544;BMP180;7873;52.230;12.856;2024-03-06T10:30:12;101640.03;;;24.72
15544;BMP180;7873;52.230;12.856;2024-03-06T10:32:42;101632.09;;;24.71
15544;BMP180;7873;52.230;12.856;2024-03-06T10:35:18;101638.63;;;24.68
15544;BMP180;7873;52.230;12.856;2024-03-06T10:37:45;101646.91;;;24.67
15544;BMP180;7873;52.230;12.856;2024-03-06T10:40:15;101639.16;;;24.64
15544;BMP180;7873;52.230;12.856;2024-03-06T10:42:44;101642.69;;;24.56
15544;BMP180;7873;52.230;12.856;2024-03-06T10:45:13;101639.31;;;24.54
15544;BMP180;7873;52.230;12.856;2024-03-06T10:47:40;101626.03;;;24.61
15544;BMP180;7873;52.230;12.856;2024-03-06T10:50:08;101628.19;;;24.65
15544;BMP180;7873;52.230;12.856;2024-03-06T10:52:38;101636.63;;;24.62
15544;BMP180;7873;52.230;12.856;2024-03-06T10:55:04;101621.13;;;24.64
15544;BMP180;7873;52.230;12.856;2024-03-06T10:57:33;101634.78;;;24.63
15544;BMP180;7873;52.230;12.856;2024-03-06T11:00:00;101623.16;;;24.62
15544;BMP180;7873;52.230;12.856;2024-03-06T11:02:27;101636.09;;;24.59
15544;BMP180;7873;52.230;12.856;2024-03-06T11:04:54;101632.72;;;24.57
15544;BMP180;7873;52.230;12.856;2024-03-06T11:07:20;101628.53;;;24.54
15544;BMP180;7873;52.230;12.856;2024-03-06T11:09:47;101646.28;;;24.39
15544;BMP180;7873;52.230;12.856;2024-03-06T11:12:33;101641.84;;;24.22
15544;BMP180;7873;52.230;12.856;2024-03-06T11:15:08;101640.16;;;24.21
15544;BMP180;7873;52.230;12.856;2024-03-06T11:17:36;101648.97;;;24.31
15544;BMP180;7873;52.230;12.856;2024-03-06T11:20:14;101661.84;;;24.53
15544;BMP180;7873;52.230;12.856;2024-03-06T11:23:03;101645.38;;;24.64
15544;BMP180;7873;52.230;12.856;2024-03-06T11:25:59;101649.09;;;24.71
15544;BMP180;7873;52.230;12.856;2024-03-06T11:28:30;101644.06;;;24.76
15544;BMP180;7873;52.230;12.856;2024-03-06T11:30:58;101648.09;;;24.80
15544;BMP180;7873;52.230;12.856;2024-03-06T11:33:28;101647.09;;;24.81
15544;BMP180;7873;52.230;12.856;2024-03-06T11:36:15;101644.22;;;24.83
15544;BMP180;7873;52.230;12.856;2024-03-06T11:38:45;101643.22;;;24.84
15544;BMP180;7873;52.230;12.856;2024-03-06T11:41:12;101637.00;;;24.83
15544;BMP180;7873;52.230;12.856;2024-03-06T11:43:43;101638.66;;;24.76
15544;BMP180;7873;52.230;12.856;2024-03-06T11:46:10;101640.50;;;24.60
15544;BMP180;7873;52.230;12.856;2024-03-06T11:48:37;101637.28;;;24.56
15544;BMP180;7873;52.230;12.856;2024-03-06T11:51:04;101637.63;;;24.53
15544;BMP180;7873;52.230;12.856;2024-03-06T11:53:32;101632.53;;;24.50
15544;BMP180;7873;52.230;12.856;2024-03-06T11:55:59;101644.47;;;24.48
15544;BMP180;7873;52.230;12.856;2024-03-06T11:58:26;101649.56;;;24.51
15544;BMP180;7873;52.230;12.856;2024-03-06T12:00:54;101649.72;;;24.49
15544;BMP180;7873;52.230;12.856;2024-03-06T12:03:22;101643.47;;;24.49
15544;BMP180;7873;52.230;12.856;2024-03-06T12:05:50;101640.91;;;24.39
15544;BMP180;7873;52.230;12.856;2024-03-06T12:08:18;101642.09;;;24.37
15544;BMP180;7873;52.230;12.856;2024-03-06T12:10:46;101629.44;;;24.29
15544;BMP180;7873;52.230;12.856;2024-03-06T12:13:12;101633.16;;;24.28
15544;BMP180;7873;52.230;12.856;2024-03-06T12:15:42;101625.22;;;24.27
15544;BMP180;7873;52.230;12.856;2024-03-06T12:18:10;101634.44;;;24.24
15544;BMP180;7873;52.230;12.856;2024-03-06T12:20:40;101629.94;;;24.25
15544;BMP180;7873;52.230;12.856;2024-03-06T12:23:19;101631.75;;;24.24
15544;BMP180;7873;52.230;12.856;2024-03-06T12:25:46;101641.72;;;24.24
15544;BMP180;7873;52.230;12.856;2024-03-06T12:28:12;101633.28;;;24.19
15544;BMP180;7873;52.230;12.856;2024-03-06T12:30:41;101640.50;;;24.18
15544;BMP180;7873;52.230;12.856;2024-03-06T12:33:11;101633.91;;;24.13
15544;BMP180;7873;52.230;12.856;2024-03-06T12:35:42;101639.47;;;24.11
15544;BMP180;7873;52.230;12.856;2024-03-06T12:38:12;101637.78;;;24.10
15544;BMP180;7873;52.230;12.856;2024-03-06T12:40:39;101642.31;;;24.10
15544;BMP180;7873;52.230;12.856;2024-03-06T12:43:06;101641.81;;;24.06
15544;BMP180;7873;52.230;12.856;2024-03-06T12:45:33;101635.56;;;24.06
15544;BMP180;7873;52.230;12.856;2024-03-06T12:48:00;101628.50;;;24.05
15544;BMP180;7873;52.230;12.856;2024-03-06T12:50:28;101638.28;;;24.06
15544;BMP180;7873;52.230;12.856;2024-03-06T12:52:54;101634.75;;;24.05
15544;BMP180;7873;52.230;12.856;2024-03-06T12:55:21;101630.38;;;24.04
15544;BMP180;7873;52.230;12.856;2024-03-06T12:57:47;101634.22;;;24.02
15544;BMP180;7873;52.230;12.856;2024-03-06T13:00:15;101638.75;;;24.01
15544;BMP180;7873;52.230;12.856;2024-03-06T13:02:42;101637.25;;;23.99
15544;BMP180;7873;52.230;12.856;2024-03-06T13:05:09;101635.56;;;23.98
15544;BMP180;7873;52.230;12.856;2024-03-06T13:07:37;101633.88;;;23.97
15544;BMP180;7873;52.230;12.856;2024-03-06T13:10:04;101638.38;;;23.96
15544;BMP180;7873;52.230;12.856;2024-03-06T13:12:30;101638.56;;;23.95
15544;BMP180;7873;52.230;12.856;2024-03-06T13:14:57;101643.94;;;23.95
15544;BMP180;7873;52.230;12.856;2024-03-06T13:17:23;101644.09;;;23.93
15544;BMP180;7873;52.230;12.856;2024-03-06T13:19:50;101643.28;;;23.93
15544;BMP180;7873;52.230;12.856;2024-03-06T13:22:16;101650.66;;;23.91
15544;BMP180;7873;52.230;12.856;2024-03-06T13:24:44;101648.13;;;23.89
15544;BMP180;7873;52.230;12.856;2024-03-06T13:27:11;101649.28;;;23.87
15544;BMP180;7873;52.230;12.856;2024-03-06T13:29:37;101640.38;;;23.86
15544;BMP180;7873;52.230;12.856;2024-03-06T13:32:06;101647.13;;;23.90
15544;BMP180;7873;52.230;12.856;2024-03-06T13:34:32;101642.09;;;23.95
15544;BMP180;7873;52.230;12.856;2024-03-06T13:36:59;101636.69;;;23.95
15544;BMP180;7873;52.230;12.856;2024-03-06T13:39:25;101639.38;;;23.87
15544;BMP180;7873;52.230;12.856;2024-03-06T13:41:53;101643.06;;;23.86
15544;BMP180;7873;52.230;12.856;2024-03-06T13:44:20;101646.25;;;23.90
15544;BMP180;7873;52.230;12.856;2024-03-06T13:46:47;101637.34;;;23.89
15544;BMP180;7873;52.230;12.856;2024-03-06T13:49:34;101647.25;;;23.89
15544;BMP180;7873;52.230;12.856;2024-03-06T13:52:01;101645.75;;;23.86
15544;BMP180;7873;52.230;12.856;2024-03-06T13:54:27;101645.75;;;23.86
15544;BMP180;7873;52.230;12.856;2024-03-06T13:56:55;101638.50;;;23.87
15544;BMP180;7873;52.230;12.856;2024-03-06T13:59:27;101640.72;;;23.91